sensor_id;sensor_type;location;lat;lon;timestamp;P1;durP1;ratioP1;P2;durP2;ratioP2
66800;SDS011;53703;50.326;19.122;2023-08-01T00:00:40;8.10;;;3.90;;
66800;SDS011;53703;50.326;19.122;2023-08-01T00:03:28;8.50;;;4.20;;
66800;SDS011;53703;50.326;19.122;2023-08-01T00:06:01;9.30;;;4.30;;
66800;SDS011;53703;50.326;19.122;2023-08-01T00:08:35;10.10;;;4.20;;
66800;SDS011;53703;50.326;19.122;2023-08-01T00:11:08;7.80;;;4.10;;
66800;SDS011;53703;50.326;19.122;2023-08-01T00:13:42;7.80;;;3.90;;
66800;SDS011;53703;50.326;19.122;2023-08-01T00:16:15;8.80;;;4.10;;
66800;SDS011;53703;50.326;19.122;2023-08-01T00:18:48;9.10;;;3.70;;
66800;SDS011;53703;50.326;19.122;2023-08-01T00:21:21;8.00;;;4.10;;
66800;SDS011;53703;50.326;19.122;2023-08-01T00:23:55;5.80;;;3.40;;
66800;SDS011;53703;50.326;19.122;2023-08-01T00:26:28;7.10;;;3.80;;
66800;SDS011;53703;50.326;19.122;2023-08-01T00:29:01;9.40;;;3.80;;
66800;SDS011;53703;50.326;19.122;2023-08-01T00:31:35;7.90;;;3.60;;
66800;SDS011;53703;50.326;19.122;2023-08-01T00:34:08;7.00;;;3.40;;
66800;SDS011;53703;50.326;19.122;2023-08-01T00:36:41;5.50;;;3.30;;
66800;SDS011;53703;50.326;19.122;2023-08-01T00:39:15;8.00;;;3.50;;
66800;SDS011;53703;50.326;19.122;2023-08-01T00:41:48;9.20;;;3.40;;
66800;SDS011;53703;50.326;19.122;2023-08-01T00:44:21;6.70;;;3.70;;
66800;SDS011;53703;50.326;19.122;2023-08-01T00:46:55;8.70;;;3.70;;
66800;SDS011;53703;50.326;19.122;2023-08-01T00:49:28;7.10;;;3.50;;
66800;SDS011;53703;50.326;19.122;2023-08-01T00:52:05;6.60;;;3.50;;
66800;SDS011;53703;50.326;19.122;2023-08-01T00:54:40;11.00;;;3.20;;
66800;SDS011;53703;50.326;19.122;2023-08-01T00:57:13;6.90;;;3.30;;
66800;SDS011;53703;50.326;19.122;2023-08-01T00:59:47;5.70;;;3.20;;
66800;SDS011;53703;50.326;19.122;2023-08-01T01:02:20;5.50;;;3.20;;
66800;SDS011;53703;50.326;19.122;2023-08-01T01:04:54;7.20;;;3.20;;
66800;SDS011;53703;50.326;19.122;2023-08-01T01:07:27;5.80;;;3.00;;
66800;SDS011;53703;50.326;19.122;2023-08-01T01:10:01;8.10;;;3.30;;
66800;SDS011;53703;50.326;19.122;2023-08-01T01:12:34;7.00;;;3.50;;
66800;SDS011;53703;50.326;19.122;2023-08-01T01:15:09;5.80;;;3.30;;
66800;SDS011;53703;50.326;19.122;2023-08-01T01:17:42;6.60;;;3.10;;
66800;SDS011;53703;50.326;19.122;2023-08-01T01:22:55;5.00;;;3.10;;
66800;SDS011;53703;50.326;19.122;2023-08-01T01:25:29;8.10;;;3.30;;
66800;SDS011;53703;50.326;19.122;2023-08-01T01:28:04;6.20;;;3.20;;
66800;SDS011;53703;50.326;19.122;2023-08-01T01:30:38;5.50;;;3.30;;
66800;SDS011;53703;50.326;19.122;2023-08-01T01:33:13;6.50;;;3.10;;
66800;SDS011;53703;50.326;19.122;2023-08-01T01:35:48;5.90;;;3.30;;
66800;SDS011;53703;50.326;19.122;2023-08-01T01:38:21;6.70;;;3.10;;
66800;SDS011;53703;50.326;19.122;2023-08-01T01:40:54;6.00;;;3.10;;
66800;SDS011;53703;50.326;19.122;2023-08-01T01:43:28;7.40;;;3.40;;
66800;SDS011;53703;50.326;19.122;2023-08-01T01:46:01;6.10;;;3.00;;
66800;SDS011;53703;50.326;19.122;2023-08-01T01:48:34;6.20;;;3.00;;
66800;SDS011;53703;50.326;19.122;2023-08-01T01:51:08;8.50;;;3.10;;
66800;SDS011;53703;50.326;19.122;2023-08-01T01:53:41;5.80;;;3.30;;
66800;SDS011;53703;50.326;19.122;2023-08-01T01:56:14;6.60;;;3.40;;
66800;SDS011;53703;50.326;19.122;2023-08-01T01:58:48;8.20;;;3.00;;
66800;SDS011;53703;50.326;19.122;2023-08-01T02:01:21;9.50;;;3.20;;
66800;SDS011;53703;50.326;19.122;2023-08-01T02:03:55;9.90;;;3.00;;
66800;SDS011;53703;50.326;19.122;2023-08-01T02:06:28;8.90;;;3.20;;
66800;SDS011;53703;50.326;19.122;2023-08-01T02:09:02;6.90;;;3.80;;
66800;SDS011;53703;50.326;19.122;2023-08-01T02:11:36;5.40;;;3.00;;
66800;SDS011;53703;50.326;19.122;2023-08-01T02:14:09;5.80;;;3.20;;
66800;SDS011;53703;50.326;19.122;2023-08-01T02:16:42;4.60;;;2.70;;
66800;SDS011;53703;50.326;19.122;2023-08-01T02:19:16;8.50;;;3.40;;
66800;SDS011;53703;50.326;19.122;2023-08-01T02:21:49;6.80;;;3.30;;
66800;SDS011;53703;50.326;19.122;2023-08-01T02:24:22;8.20;;;2.80;;
66800;SDS011;53703;50.326;19.122;2023-08-01T02:26:56;6.20;;;3.20;;
66800;SDS011;53703;50.326;19.122;2023-08-01T02:29:29;5.20;;;3.10;;
66800;SDS011;53703;50.326;19.122;2023-08-01T02:32:03;5.90;;;3.30;;
66800;SDS011;53703;50.326;19.122;2023-08-01T02:34:37;8.10;;;3.20;;
66800;SDS011;53703;50.326;19.122;2023-08-01T02:37:10;6.60;;;3.10;;
66800;SDS011;53703;50.326;19.122;2023-08-01T02:39:43;7.00;;;2.90;;
66800;SDS011;53703;50.326;19.122;2023-08-01T02:42:17;5.90;;;3.20;;
66800;SDS011;53703;50.326;19.122;2023-08-01T02:44:50;6.20;;;3.10;;
66800;SDS011;53703;50.326;19.122;2023-08-01T02:47:23;8.90;;;3.00;;
66800;SDS011;53703;50.326;19.122;2023-08-01T02:49:57;7.30;;;3.30;;
66800;SDS011;53703;50.326;19.122;2023-08-01T02:52:30;5.80;;;3.20;;
66800;SDS011;53703;50.326;19.122;2023-08-01T02:55:05;10.70;;;3.20;;
66800;SDS011;53703;50.326;19.122;2023-08-01T02:57:39;6.90;;;3.10;;
66800;SDS011;53703;50.326;19.122;2023-08-01T03:00:13;8.60;;;3.10;;
66800;SDS011;53703;50.326;19.122;2023-08-01T03:02:49;6.20;;;3.60;;
66800;SDS011;53703;50.326;19.122;2023-08-01T03:05:23;7.00;;;3.90;;
66800;SDS011;53703;50.326;19.122;2023-08-01T03:07:56;5.60;;;3.30;;
66800;SDS011;53703;50.326;19.122;2023-08-01T03:10:29;7.10;;;3.30;;
66800;SDS011;53703;50.326;19.122;2023-08-01T03:13:07;6.40;;;3.20;;
66800;SDS011;53703;50.326;19.122;2023-08-01T03:15:40;7.60;;;2.70;;
66800;SDS011;53703;50.326;19.122;2023-08-01T03:18:13;6.60;;;3.00;;
66800;SDS011;53703;50.326;19.122;2023-08-01T03:20:47;10.10;;;3.20;;
66800;SDS011;53703;50.326;19.122;2023-08-01T03:23:22;7.00;;;3.40;;
66800;SDS011;53703;50.326;19.122;2023-08-01T03:25:55;7.20;;;3.10;;
66800;SDS011;53703;50.326;19.122;2023-08-01T03:28:29;6.20;;;3.50;;
66800;SDS011;53703;50.326;19.122;2023-08-01T03:31:03;5.10;;;3.10;;
66800;SDS011;53703;50.326;19.122;2023-08-01T03:33:36;6.00;;;3.00;;
66800;SDS011;53703;50.326;19.122;2023-08-01T03:36:10;7.30;;;3.10;;
66800;SDS011;53703;50.326;19.122;2023-08-01T03:38:44;4.70;;;2.90;;
66800;SDS011;53703;50.326;19.122;2023-08-01T03:41:17;8.20;;;3.30;;
66800;SDS011;53703;50.326;19.122;2023-08-01T03:43:51;6.70;;;3.10;;
66800;SDS011;53703;50.326;19.122;2023-08-01T03:46:25;7.70;;;2.80;;
66800;SDS011;53703;50.326;19.122;2023-08-01T03:48:58;7.30;;;3.10;;
66800;SDS011;53703;50.326;19.122;2023-08-01T03:51:32;7.90;;;3.10;;
66800;SDS011;53703;50.326;19.122;2023-08-01T03:54:05;9.40;;;3.00;;
66800;SDS011;53703;50.326;19.122;2023-08-01T03:56:43;6.10;;;3.00;;
66800;SDS011;53703;50.326;19.122;2023-08-01T03:59:17;7.00;;;3.10;;
66800;SDS011;53703;50.326;19.122;2023-08-01T04:01:51;6.30;;;2.80;;
66800;SDS011;53703;50.326;19.122;2023-08-01T04:04:24;7.50;;;2.70;;
66800;SDS011;53703;50.326;19.122;2023-08-01T04:06:57;6.50;;;3.00;;
66800;SDS011;53703;50.326;19.122;2023-08-01T04:09:31;8.40;;;2.70;;
66800;SDS011;53703;50.326;19.122;2023-08-01T04:12:05;7.30;;;3.10;;
66800;SDS011;53703;50.326;19.122;2023-08-01T04:14:39;6.70;;;2.80;;
66800;SDS011;53703;50.326;19.122;2023-08-01T04:17:13;4.40;;;3.00;;
66800;SDS011;53703;50.326;19.122;2023-08-01T04:19:46;5.50;;;3.00;;
66800;SDS011;53703;50.326;19.122;2023-08-01T04:22:19;7.10;;;3.00;;
66800;SDS011;53703;50.326;19.122;2023-08-01T04:24:53;6.90;;;3.00;;
66800;SDS011;53703;50.326;19.122;2023-08-01T04:27:26;4.50;;;2.70;;
66800;SDS011;53703;50.326;19.122;2023-08-01T04:29:59;5.40;;;2.70;;
66800;SDS011;53703;50.326;19.122;2023-08-01T04:32:33;5.30;;;3.00;;
66800;SDS011;53703;50.326;19.122;2023-08-01T04:35:07;5.50;;;2.70;;
66800;SDS011;53703;50.326;19.122;2023-08-01T04:37:41;7.70;;;2.90;;
66800;SDS011;53703;50.326;19.122;2023-08-01T04:40:14;5.90;;;2.90;;
66800;SDS011;53703;50.326;19.122;2023-08-01T04:42:48;6.50;;;2.70;;
66800;SDS011;53703;50.326;19.122;2023-08-01T04:45:22;4.10;;;2.50;;
66800;SDS011;53703;50.326;19.122;2023-08-01T04:47:55;6.80;;;3.40;;
66800;SDS011;53703;50.326;19.122;2023-08-01T04:50:28;7.60;;;2.80;;
66800;SDS011;53703;50.326;19.122;2023-08-01T04:53:02;9.30;;;3.30;;
66800;SDS011;53703;50.326;19.122;2023-08-01T04:55:36;5.40;;;3.00;;
66800;SDS011;53703;50.326;19.122;2023-08-01T04:58:11;9.60;;;3.10;;
66800;SDS011;53703;50.326;19.122;2023-08-01T05:00:44;10.40;;;2.80;;
66800;SDS011;53703;50.326;19.122;2023-08-01T05:03:18;6.20;;;3.00;;
66800;SDS011;53703;50.326;19.122;2023-08-01T05:05:51;5.40;;;3.00;;
66800;SDS011;53703;50.326;19.122;2023-08-01T05:08:25;6.90;;;3.10;;
66800;SDS011;53703;50.326;19.122;2023-08-01T05:10:58;4.90;;;2.50;;
66800;SDS011;53703;50.326;19.122;2023-08-01T05:13:32;8.10;;;3.10;;
66800;SDS011;53703;50.326;19.122;2023-08-01T05:16:05;6.50;;;2.90;;
66800;SDS011;53703;50.326;19.122;2023-08-01T05:18:39;5.50;;;3.00;;
66800;SDS011;53703;50.326;19.122;2023-08-01T05:21:12;6.50;;;2.80;;
66800;SDS011;53703;50.326;19.122;2023-08-01T05:23:45;7.40;;;2.90;;
66800;SDS011;53703;50.326;19.122;2023-08-01T05:26:19;6.10;;;2.70;;
66800;SDS011;53703;50.326;19.122;2023-08-01T05:28:52;6.60;;;2.90;;
66800;SDS011;53703;50.326;19.122;2023-08-01T05:31:26;5.80;;;2.80;;
66800;SDS011;53703;50.326;19.122;2023-08-01T05:33:59;6.40;;;3.10;;
66800;SDS011;53703;50.326;19.122;2023-08-01T05:36:32;6.50;;;3.10;;
66800;SDS011;53703;50.326;19.122;2023-08-01T05:39:08;10.30;;;3.10;;
66800;SDS011;53703;50.326;19.122;2023-08-01T05:41:41;8.60;;;3.10;;
66800;SDS011;53703;50.326;19.122;2023-08-01T05:44:15;10.90;;;3.00;;
66800;SDS011;53703;50.326;19.122;2023-08-01T05:46:48;9.00;;;3.40;;
66800;SDS011;53703;50.326;19.122;2023-08-01T05:49:22;9.00;;;2.90;;
66800;SDS011;53703;50.326;19.122;2023-08-01T05:51:55;8.00;;;2.90;;
66800;SDS011;53703;50.326;19.122;2023-08-01T05:54:28;6.30;;;2.60;;
66800;SDS011;53703;50.326;19.122;2023-08-01T05:57:02;7.20;;;2.90;;
66800;SDS011;53703;50.326;19.122;2023-08-01T05:59:36;9.20;;;3.40;;
66800;SDS011;53703;50.326;19.122;2023-08-01T06:02:10;5.90;;;3.10;;
66800;SDS011;53703;50.326;19.122;2023-08-01T06:04:43;5.90;;;2.90;;
66800;SDS011;53703;50.326;19.122;2023-08-01T06:07:20;6.10;;;3.20;;
66800;SDS011;53703;50.326;19.122;2023-08-01T06:09:54;8.80;;;3.00;;
66800;SDS011;53703;50.326;19.122;2023-08-01T06:12:27;8.00;;;3.00;;
66800;SDS011;53703;50.326;19.122;2023-08-01T06:15:01;7.90;;;3.30;;
66800;SDS011;53703;50.326;19.122;2023-08-01T06:17:35;7.10;;;3.30;;
66800;SDS011;53703;50.326;19.122;2023-08-01T06:20:11;10.80;;;3.80;;
66800;SDS011;53703;50.326;19.122;2023-08-01T06:22:45;6.90;;;3.20;;
66800;SDS011;53703;50.326;19.122;2023-08-01T06:25:18;5.40;;;3.00;;
66800;SDS011;53703;50.326;19.122;2023-08-01T06:27:52;6.90;;;2.90;;
66800;SDS011;53703;50.326;19.122;2023-08-01T06:30:25;6.00;;;3.00;;
66800;SDS011;53703;50.326;19.122;2023-08-01T06:32:59;5.70;;;3.30;;
66800;SDS011;53703;50.326;19.122;2023-08-01T06:35:32;8.40;;;3.20;;
66800;SDS011;53703;50.326;19.122;2023-08-01T06:38:06;8.30;;;2.90;;
66800;SDS011;53703;50.326;19.122;2023-08-01T06:40:39;9.50;;;3.20;;
66800;SDS011;53703;50.326;19.122;2023-08-01T06:43:13;9.50;;;4.80;;
66800;SDS011;53703;50.326;19.122;2023-08-01T06:45:47;9.80;;;3.40;;
66800;SDS011;53703;50.326;19.122;2023-08-01T06:48:20;13.90;;;3.70;;
66800;SDS011;53703;50.326;19.122;2023-08-01T06:50:53;8.70;;;3.70;;
66800;SDS011;53703;50.326;19.122;2023-08-01T06:53:27;4.90;;;2.90;;
66800;SDS011;53703;50.326;19.122;2023-08-01T06:56:00;6.90;;;2.90;;
66800;SDS011;53703;50.326;19.122;2023-08-01T06:58:34;6.90;;;3.10;;
66800;SDS011;53703;50.326;19.122;2023-08-01T07:01:07;6.40;;;3.50;;
66800;SDS011;53703;50.326;19.122;2023-08-01T07:03:41;5.80;;;3.10;;
66800;SDS011;53703;50.326;19.122;2023-08-01T07:06:14;6.30;;;3.00;;
66800;SDS011;53703;50.326;19.122;2023-08-01T07:08:47;7.80;;;3.40;;
66800;SDS011;53703;50.326;19.122;2023-08-01T07:11:21;7.60;;;3.10;;
66800;SDS011;53703;50.326;19.122;2023-08-01T07:13:54;8.70;;;3.20;;
66800;SDS011;53703;50.326;19.122;2023-08-01T07:16:28;6.40;;;3.10;;
66800;SDS011;53703;50.326;19.122;2023-08-01T07:19:01;7.70;;;3.10;;
66800;SDS011;53703;50.326;19.122;2023-08-01T07:21:35;5.70;;;3.00;;
66800;SDS011;53703;50.326;19.122;2023-08-01T07:24:08;6.00;;;2.90;;
66800;SDS011;53703;50.326;19.122;2023-08-01T07:26:41;5.50;;;3.00;;
66800;SDS011;53703;50.326;19.122;2023-08-01T07:29:15;8.10;;;3.00;;
66800;SDS011;53703;50.326;19.122;2023-08-01T07:31:48;4.40;;;2.70;;
66800;SDS011;53703;50.326;19.122;2023-08-01T07:34:22;5.10;;;2.80;;
66800;SDS011;53703;50.326;19.122;2023-08-01T07:36:55;7.10;;;3.30;;
66800;SDS011;53703;50.326;19.122;2023-08-01T07:39:29;7.00;;;3.10;;
66800;SDS011;53703;50.326;19.122;2023-08-01T07:42:05;6.30;;;2.20;;
66800;SDS011;53703;50.326;19.122;2023-08-01T07:44:38;5.40;;;2.70;;
66800;SDS011;53703;50.326;19.122;2023-08-01T07:47:12;6.60;;;3.00;;
66800;SDS011;53703;50.326;19.122;2023-08-01T07:49:45;5.20;;;2.70;;
66800;SDS011;53703;50.326;19.122;2023-08-01T07:52:18;6.10;;;2.90;;
66800;SDS011;53703;50.326;19.122;2023-08-01T07:54:52;6.80;;;2.70;;
66800;SDS011;53703;50.326;19.122;2023-08-01T07:57:28;4.80;;;3.00;;
66800;SDS011;53703;50.326;19.122;2023-08-01T08:00:01;7.50;;;3.10;;
66800;SDS011;53703;50.326;19.122;2023-08-01T08:02:35;5.50;;;3.10;;
66800;SDS011;53703;50.326;19.122;2023-08-01T08:05:10;6.90;;;3.00;;
66800;SDS011;53703;50.326;19.122;2023-08-01T08:07:44;6.10;;;3.10;;
66800;SDS011;53703;50.326;19.122;2023-08-01T08:10:17;7.20;;;2.80;;
66800;SDS011;53703;50.326;19.122;2023-08-01T08:12:51;5.10;;;2.80;;
66800;SDS011;53703;50.326;19.122;2023-08-01T08:15:24;8.20;;;3.00;;
66800;SDS011;53703;50.326;19.122;2023-08-01T08:17:58;5.60;;;3.00;;
66800;SDS011;53703;50.326;19.122;2023-08-01T08:20:40;9.00;;;3.00;;
66800;SDS011;53703;50.326;19.122;2023-08-01T08:23:15;5.00;;;2.80;;
66800;SDS011;53703;50.326;19.122;2023-08-01T08:25:49;7.40;;;2.70;;
66800;SDS011;53703;50.326;19.122;2023-08-01T08:28:30;4.80;;;2.60;;
66800;SDS011;53703;50.326;19.122;2023-08-01T08:31:05;6.60;;;2.90;;
66800;SDS011;53703;50.326;19.122;2023-08-01T08:33:39;6.30;;;3.00;;
66800;SDS011;53703;50.326;19.122;2023-08-01T08:36:12;8.00;;;3.50;;
66800;SDS011;53703;50.326;19.122;2023-08-01T08:38:46;8.80;;;3.10;;
66800;SDS011;53703;50.326;19.122;2023-08-01T08:41:22;8.00;;;3.10;;
66800;SDS011;53703;50.326;19.122;2023-08-01T08:43:58;5.60;;;3.20;;
66800;SDS011;53703;50.326;19.122;2023-08-01T08:46:33;6.60;;;3.50;;
66800;SDS011;53703;50.326;19.122;2023-08-01T08:49:12;6.50;;;3.00;;
66800;SDS011;53703;50.326;19.122;2023-08-01T08:51:46;4.60;;;3.20;;
66800;SDS011;53703;50.326;19.122;2023-08-01T08:54:20;6.60;;;3.00;;
66800;SDS011;53703;50.326;19.122;2023-08-01T08:56:54;9.50;;;3.10;;
66800;SDS011;53703;50.326;19.122;2023-08-01T08:59:28;5.40;;;3.20;;
66800;SDS011;53703;50.326;19.122;2023-08-01T09:02:04;5.20;;;3.20;;
66800;SDS011;53703;50.326;19.122;2023-08-01T09:04:38;5.40;;;3.20;;
66800;SDS011;53703;50.326;19.122;2023-08-01T09:07:11;7.00;;;3.30;;
66800;SDS011;53703;50.326;19.122;2023-08-01T09:09:47;5.20;;;3.30;;
66800;SDS011;53703;50.326;19.122;2023-08-01T09:12:20;5.60;;;3.00;;
66800;SDS011;53703;50.326;19.122;2023-08-01T09:14:54;6.30;;;3.60;;
66800;SDS011;53703;50.326;19.122;2023-08-01T09:17:30;4.90;;;3.20;;
66800;SDS011;53703;50.326;19.122;2023-08-01T09:20:08;5.30;;;3.20;;
66800;SDS011;53703;50.326;19.122;2023-08-01T09:22:45;8.40;;;3.00;;
66800;SDS011;53703;50.326;19.122;2023-08-01T09:25:19;6.50;;;3.20;;
66800;SDS011;53703;50.326;19.122;2023-08-01T09:28:02;5.30;;;3.00;;
66800;SDS011;53703;50.326;19.122;2023-08-01T09:30:51;5.80;;;3.40;;
66800;SDS011;53703;50.326;19.122;2023-08-01T09:33:26;7.30;;;3.30;;
66800;SDS011;53703;50.326;19.122;2023-08-01T09:36:09;4.80;;;3.00;;
66800;SDS011;53703;50.326;19.122;2023-08-01T09:38:57;4.80;;;3.20;;
66800;SDS011;53703;50.326;19.122;2023-08-01T09:41:31;4.90;;;3.00;;
66800;SDS011;53703;50.326;19.122;2023-08-01T09:44:05;5.10;;;2.80;;
66800;SDS011;53703;50.326;19.122;2023-08-01T09:46:41;5.20;;;3.20;;
66800;SDS011;53703;50.326;19.122;2023-08-01T09:49:15;4.80;;;2.70;;
66800;SDS011;53703;50.326;19.122;2023-08-01T09:51:49;5.70;;;3.00;;
66800;SDS011;53703;50.326;19.122;2023-08-01T09:54:23;6.90;;;3.40;;
66800;SDS011;53703;50.326;19.122;2023-08-01T09:56:56;6.10;;;3.20;;
66800;SDS011;53703;50.326;19.122;2023-08-01T09:59:33;6.30;;;3.20;;
66800;SDS011;53703;50.326;19.122;2023-08-01T10:02:08;5.20;;;3.50;;
66800;SDS011;53703;50.326;19.122;2023-08-01T10:04:47;5.70;;;3.30;;
66800;SDS011;53703;50.326;19.122;2023-08-01T10:07:24;4.30;;;3.20;;
66800;SDS011;53703;50.326;19.122;2023-08-01T10:10:01;5.80;;;3.30;;
66800;SDS011;53703;50.326;19.122;2023-08-01T10:12:35;6.80;;;3.40;;
66800;SDS011;53703;50.326;19.122;2023-08-01T10:15:10;5.60;;;2.80;;
66800;SDS011;53703;50.326;19.122;2023-08-01T10:17:44;4.50;;;3.10;;
66800;SDS011;53703;50.326;19.122;2023-08-01T10:20:17;5.30;;;3.20;;
66800;SDS011;53703;50.326;19.122;2023-08-01T10:22:52;5.30;;;2.80;;
66800;SDS011;53703;50.326;19.122;2023-08-01T10:25:26;6.00;;;3.80;;
66800;SDS011;53703;50.326;19.122;2023-08-01T10:28:03;6.60;;;3.10;;
66800;SDS011;53703;50.326;19.122;2023-08-01T10:30:37;6.40;;;3.00;;
66800;SDS011;53703;50.326;19.122;2023-08-01T10:33:11;5.90;;;3.30;;
66800;SDS011;53703;50.326;19.122;2023-08-01T10:35:44;4.40;;;3.00;;
66800;SDS011;53703;50.326;19.122;2023-08-01T10:38:18;6.90;;;3.50;;
66800;SDS011;53703;50.326;19.122;2023-08-01T10:40:52;7.90;;;3.50;;
66800;SDS011;53703;50.326;19.122;2023-08-01T10:43:26;5.80;;;4.00;;
66800;SDS011;53703;50.326;19.122;2023-08-01T10:46:05;7.60;;;3.50;;
66800;SDS011;53703;50.326;19.122;2023-08-01T10:48:48;6.10;;;3.40;;
66800;SDS011;53703;50.326;19.122;2023-08-01T10:51:22;8.70;;;3.60;;
66800;SDS011;53703;50.326;19.122;2023-08-01T10:54:06;6.60;;;3.80;;
66800;SDS011;53703;50.326;19.122;2023-08-01T10:56:51;6.90;;;3.40;;
66800;SDS011;53703;50.326;19.122;2023-08-01T10:59:28;6.30;;;3.40;;
66800;SDS011;53703;50.326;19.122;2023-08-01T11:02:02;5.90;;;3.30;;
66800;SDS011;53703;50.326;19.122;2023-08-01T11:04:36;7.40;;;3.00;;
66800;SDS011;53703;50.326;19.122;2023-08-01T11:07:11;5.80;;;3.30;;
66800;SDS011;53703;50.326;19.122;2023-08-01T11:09:45;5.70;;;3.10;;
66800;SDS011;53703;50.326;19.122;2023-08-01T11:12:18;5.10;;;3.40;;
66800;SDS011;53703;50.326;19.122;2023-08-01T11:14:52;4.60;;;2.80;;
66800;SDS011;53703;50.326;19.122;2023-08-01T11:20:07;5.20;;;3.10;;
66800;SDS011;53703;50.326;19.122;2023-08-01T11:22:52;5.30;;;2.90;;
66800;SDS011;53703;50.326;19.122;2023-08-01T11:25:35;14.20;;;3.10;;
66800;SDS011;53703;50.326;19.122;2023-08-01T11:28:12;6.90;;;2.90;;
66800;SDS011;53703;50.326;19.122;2023-08-01T11:30:47;5.60;;;2.60;;
66800;SDS011;53703;50.326;19.122;2023-08-01T11:33:22;8.90;;;2.50;;
66800;SDS011;53703;50.326;19.122;2023-08-01T11:35:56;5.20;;;2.70;;
66800;SDS011;53703;50.326;19.122;2023-08-01T11:38:31;6.50;;;2.90;;
66800;SDS011;53703;50.326;19.122;2023-08-01T11:41:06;9.00;;;3.30;;
66800;SDS011;53703;50.326;19.122;2023-08-01T11:43:43;9.40;;;3.50;;
66800;SDS011;53703;50.326;19.122;2023-08-01T11:46:17;9.30;;;3.40;;
66800;SDS011;53703;50.326;19.122;2023-08-01T11:48:50;6.90;;;3.00;;
66800;SDS011;53703;50.326;19.122;2023-08-01T11:51:23;5.70;;;3.00;;
66800;SDS011;53703;50.326;19.122;2023-08-01T11:54:01;7.00;;;3.30;;
66800;SDS011;53703;50.326;19.122;2023-08-01T11:59:12;9.10;;;3.20;;
66800;SDS011;53703;50.326;19.122;2023-08-01T12:01:47;6.60;;;3.10;;
66800;SDS011;53703;50.326;19.122;2023-08-01T12:04:27;5.80;;;3.30;;
66800;SDS011;53703;50.326;19.122;2023-08-01T12:07:00;6.50;;;3.10;;
66800;SDS011;53703;50.326;19.122;2023-08-01T12:09:43;6.40;;;3.40;;
66800;SDS011;53703;50.326;19.122;2023-08-01T12:12:27;6.90;;;3.20;;
66800;SDS011;53703;50.326;19.122;2023-08-01T12:15:01;5.40;;;3.00;;
66800;SDS011;53703;50.326;19.122;2023-08-01T12:17:35;8.30;;;3.00;;
66800;SDS011;53703;50.326;19.122;2023-08-01T12:20:10;5.70;;;3.20;;
66800;SDS011;53703;50.326;19.122;2023-08-01T12:22:44;7.10;;;3.20;;
66800;SDS011;53703;50.326;19.122;2023-08-01T12:25:17;5.30;;;3.10;;
66800;SDS011;53703;50.326;19.122;2023-08-01T12:27:51;6.30;;;3.30;;
66800;SDS011;53703;50.326;19.122;2023-08-01T12:30:24;7.90;;;3.30;;
66800;SDS011;53703;50.326;19.122;2023-08-01T12:32:57;7.30;;;3.30;;
66800;SDS011;53703;50.326;19.122;2023-08-01T12:35:31;4.80;;;3.10;;
66800;SDS011;53703;50.326;19.122;2023-08-01T12:38:05;5.60;;;3.30;;
66800;SDS011;53703;50.326;19.122;2023-08-01T12:40:38;7.70;;;3.60;;
66800;SDS011;53703;50.326;19.122;2023-08-01T12:43:12;6.70;;;3.30;;
66800;SDS011;53703;50.326;19.122;2023-08-01T12:45:47;5.80;;;3.20;;
66800;SDS011;53703;50.326;19.122;2023-08-01T12:48:25;5.60;;;3.00;;
66800;SDS011;53703;50.326;19.122;2023-08-01T12:50:59;8.10;;;3.00;;
66800;SDS011;53703;50.326;19.122;2023-08-01T12:53:33;8.60;;;3.60;;
66800;SDS011;53703;50.326;19.122;2023-08-01T12:56:07;6.50;;;3.00;;
66800;SDS011;53703;50.326;19.122;2023-08-01T12:58:40;6.30;;;3.20;;
66800;SDS011;53703;50.326;19.122;2023-08-01T13:01:14;7.30;;;3.80;;
66800;SDS011;53703;50.326;19.122;2023-08-01T13:03:47;5.20;;;3.60;;
66800;SDS011;53703;50.326;19.122;2023-08-01T13:06:21;5.50;;;3.30;;
66800;SDS011;53703;50.326;19.122;2023-08-01T13:08:54;5.10;;;3.10;;
66800;SDS011;53703;50.326;19.122;2023-08-01T13:11:29;7.10;;;3.10;;
66800;SDS011;53703;50.326;19.122;2023-08-01T13:14:02;4.40;;;3.00;;
66800;SDS011;53703;50.326;19.122;2023-08-01T13:16:36;5.90;;;3.10;;
66800;SDS011;53703;50.326;19.122;2023-08-01T13:19:10;6.10;;;2.90;;
66800;SDS011;53703;50.326;19.122;2023-08-01T13:21:43;4.90;;;2.70;;
66800;SDS011;53703;50.326;19.122;2023-08-01T13:24:16;6.40;;;3.30;;
66800;SDS011;53703;50.326;19.122;2023-08-01T13:26:50;5.20;;;3.00;;
66800;SDS011;53703;50.326;19.122;2023-08-01T13:29:23;6.10;;;3.30;;
66800;SDS011;53703;50.326;19.122;2023-08-01T13:31:57;5.90;;;2.90;;
66800;SDS011;53703;50.326;19.122;2023-08-01T13:34:30;5.10;;;2.80;;
66800;SDS011;53703;50.326;19.122;2023-08-01T13:37:04;4.80;;;3.00;;
66800;SDS011;53703;50.326;19.122;2023-08-01T13:39:39;7.20;;;3.30;;
66800;SDS011;53703;50.326;19.122;2023-08-01T13:42:12;5.10;;;2.70;;
66800;SDS011;53703;50.326;19.122;2023-08-01T13:44:46;6.30;;;3.30;;
66800;SDS011;53703;50.326;19.122;2023-08-01T13:47:19;5.20;;;3.30;;
66800;SDS011;53703;50.326;19.122;2023-08-01T13:49:53;5.80;;;3.40;;
66800;SDS011;53703;50.326;19.122;2023-08-01T13:52:26;4.70;;;3.10;;
66800;SDS011;53703;50.326;19.122;2023-08-01T13:54:59;4.80;;;2.90;;
66800;SDS011;53703;50.326;19.122;2023-08-01T13:57:33;6.50;;;3.50;;
66800;SDS011;53703;50.326;19.122;2023-08-01T14:00:09;5.90;;;3.50;;
66800;SDS011;53703;50.326;19.122;2023-08-01T14:02:43;6.20;;;3.20;;
66800;SDS011;53703;50.326;19.122;2023-08-01T14:05:17;5.00;;;2.90;;
66800;SDS011;53703;50.326;19.122;2023-08-01T14:07:50;8.20;;;3.30;;
66800;SDS011;53703;50.326;19.122;2023-08-01T14:10:24;3.90;;;2.70;;
66800;SDS011;53703;50.326;19.122;2023-08-01T14:12:57;6.20;;;3.00;;
66800;SDS011;53703;50.326;19.122;2023-08-01T14:15:31;4.70;;;3.00;;
66800;SDS011;53703;50.326;19.122;2023-08-01T14:18:04;5.30;;;2.70;;
66800;SDS011;53703;50.326;19.122;2023-08-01T14:20:38;4.60;;;3.00;;
66800;SDS011;53703;50.326;19.122;2023-08-01T14:23:11;4.60;;;2.60;;
66800;SDS011;53703;50.326;19.122;2023-08-01T14:25:45;4.80;;;2.90;;
66800;SDS011;53703;50.326;19.122;2023-08-01T14:28:18;4.80;;;3.00;;
66800;SDS011;53703;50.326;19.122;2023-08-01T14:30:51;5.20;;;2.90;;
66800;SDS011;53703;50.326;19.122;2023-08-01T14:33:25;7.30;;;2.90;;
66800;SDS011;53703;50.326;19.122;2023-08-01T14:35:58;6.20;;;2.90;;
66800;SDS011;53703;50.326;19.122;2023-08-01T14:38:32;6.30;;;3.00;;
66800;SDS011;53703;50.326;19.122;2023-08-01T14:41:05;5.40;;;3.00;;
66800;SDS011;53703;50.326;19.122;2023-08-01T14:43:52;4.90;;;2.90;;
66800;SDS011;53703;50.326;19.122;2023-08-01T14:46:25;4.40;;;2.70;;
66800;SDS011;53703;50.326;19.122;2023-08-01T14:48:59;7.90;;;2.50;;
66800;SDS011;53703;50.326;19.122;2023-08-01T14:51:32;5.80;;;2.30;;
66800;SDS011;53703;50.326;19.122;2023-08-01T14:54:06;6.00;;;2.40;;
66800;SDS011;53703;50.326;19.122;2023-08-01T14:56:39;4.30;;;2.30;;
66800;SDS011;53703;50.326;19.122;2023-08-01T14:59:13;3.50;;;2.30;;
66800;SDS011;53703;50.326;19.122;2023-08-01T15:01:46;4.30;;;2.40;;
66800;SDS011;53703;50.326;19.122;2023-08-01T15:04:20;8.00;;;2.60;;
66800;SDS011;53703;50.326;19.122;2023-08-01T15:06:53;4.50;;;2.30;;
66800;SDS011;53703;50.326;19.122;2023-08-01T15:09:27;3.90;;;2.30;;
66800;SDS011;53703;50.326;19.122;2023-08-01T15:12:01;3.20;;;2.10;;
66800;SDS011;53703;50.326;19.122;2023-08-01T15:14:34;4.30;;;2.30;;
66800;SDS011;53703;50.326;19.122;2023-08-01T15:17:08;4.10;;;2.30;;
66800;SDS011;53703;50.326;19.122;2023-08-01T15:19:41;3.80;;;2.40;;
66800;SDS011;53703;50.326;19.122;2023-08-01T15:22:18;5.10;;;2.60;;